Time;durP1;ratioP1;P1;durP2;ratioP2;P2;SDS_P1;SDS_P2;PMS_P1;PMS_P2;Temp;Humidity;BMP_temperature;BMP_pressure;BME280_temperature;BME280_humidity;BME280_pressure;Samples;Min_cycle;Max_cycle;Signal;HPM_P1;HPM_P2
2024/03/21 00:01:55;;;;;;;0.75;0.75;;;;;;;7.04;53.94;100378.16;4464351;31;32948;-82
2024/03/21 00:04:22;;;;;;;1.27;1.17;;;;;;;7.13;53.68;100374.50;4448213;32;33658;-82
2024/03/21 00:06:49;;;;;;;0.45;0.45;;;;;;;7.29;53.08;100373.28;4462551;31;33684;-82
2024/03/21 00:09:15;;;;;;;2.92;1.60;;;;;;;7.07;53.47;100375.47;4483482;31;33832;-80
2024/03/21 00:11:42;;;;;;;1.60;1.50;;;;;;;6.92;53.95;100379.25;4464603;31;34074;-81
2024/03/21 00:14:09;;;;;;;0.77;0.77;;;;;;;6.99;54.04;100371.28;4463776;31;31993;-80
2024/03/21 00:16:36;;;;;;;0.75;0.75;;;;;;;7.07;53.69;100361.47;4482411;31;34018;-81
2024/03/21 00:19:03;;;;;;;1.85;1.75;;;;;;;7.13;53.31;100354.34;4464675;31;34732;-80
2024/03/21 00:21:30;;;;;;;0.00;0.00;;;;;;;6.98;53.66;100359.03;4469177;31;33155;-80
2024/03/21 00:23:56;;;;;;;0.62;0.62;;;;;;;6.72;54.46;100356.94;4462844;31;34413;-81
2024/03/21 00:26:24;;;;;;;0.90;0.90;;;;;;;6.71;54.69;100361.31;4455250;31;34816;-82
2024/03/21 00:28:50;;;;;;;3.67;2.80;;;;;;;6.89;54.09;100358.34;4471296;31;33318;-80
2024/03/21 00:31:17;;;;;;;1.15;1.15;;;;;;;6.85;54.28;100353.19;4471648;31;31994;-81
2024/03/21 00:33:49;;;;;;;0.40;0.40;;;;;;;6.65;54.58;100356.19;4489472;31;33242;-81
2024/03/21 00:36:19;;;;;;;3.92;3.58;;;;;;;6.58;55.11;100357.19;4474433;31;32206;-81
2024/03/21 00:38:47;;;;;;;1.45;1.35;;;;;;;6.66;54.61;100347.41;4470538;31;34268;-81
2024/03/21 00:41:13;;;;;;;1.12;1.12;;;;;;;6.55;54.79;100346.72;4474727;31;34062;-81
2024/03/21 00:43:40;;;;;;;1.95;1.70;;;;;;;6.40;55.14;100351.38;4465019;31;33898;-80
2024/03/21 00:46:07;;;;;;;1.23;1.23;;;;;;;6.61;54.68;100339.63;4465316;32;33967;-81
2024/03/21 00:48:33;;;;;;;0.73;0.73;;;;;;;6.49;54.93;100344.22;4469188;31;32449;-81
2024/03/21 00:51:00;;;;;;;1.05;1.05;;;;;;;6.98;53.12;100338.91;4472833;31;32056;-81
2024/03/21 00:53:27;;;;;;;1.58;1.23;;;;;;;6.48;54.35;100342.50;4468347;31;34326;-81
2024/03/21 00:55:54;;;;;;;1.40;1.33;;;;;;;6.36;55.38;100343.56;4479715;31;34818;-80
2024/03/21 00:58:20;;;;;;;6.07;1.92;;;;;;;6.35;54.77;100339.22;4463884;31;32455;-80
2024/03/21 01:00:47;;;;;;;0.68;0.68;;;;;;;6.21;55.75;100333.38;4453400;31;33877;-80
2024/03/21 01:03:14;;;;;;;2.00;1.83;;;;;;;6.36;55.46;100333.97;4493428;31;33798;-80
2024/03/21 01:05:43;;;;;;;0.85;0.85;;;;;;;6.36;55.23;100323.50;4475119;31;33567;-81
2024/03/21 01:08:10;;;;;;;1.70;1.58;;;;;;;6.41;55.25;100321.66;4474290;31;33047;-81
2024/03/21 01:10:36;;;;;;;5.75;2.17;;;;;;;6.51;54.73;100316.22;4464249;31;32106;-80
2024/03/21 01:13:03;;;;;;;0.45;0.45;;;;;;;6.52;54.71;100308.31;4468535;31;33306;-80
2024/03/21 01:15:30;;;;;;;2.03;1.87;;;;;;;6.52;54.66;100308.31;4486180;31;34711;-80
2024/03/21 01:17:59;;;;;;;0.80;0.80;;;;;;;6.57;54.43;100306.47;4477542;31;32784;-80
2024/03/21 01:20:25;;;;;;;0.77;0.77;;;;;;;6.60;54.45;100316.91;4472609;31;33625;-80
2024/03/21 01:22:52;;;;;;;0.95;0.95;;;;;;;6.50;54.64;100311.84;4467607;31;35263;-80
2024/03/21 01:25:19;;;;;;;1.23;1.23;;;;;;;6.56;54.73;100312.63;4471202;31;33946;-80
2024/03/21 01:27:45;;;;;;;1.55;1.45;;;;;;;6.70;54.20;100309.72;4456306;31;33325;-79
2024/03/21 01:30:12;;;;;;;1.85;1.77;;;;;;;6.60;54.37;100311.66;4462949;31;34828;-79
2024/03/21 01:32:38;;;;;;;5.60;1.70;;;;;;;6.44;55.10;100314.59;4478648;31;32743;-80
2024/03/21 01:35:07;;;;;;;1.05;1.05;;;;;;;6.59;54.54;100314.31;4462163;31;33089;-80
2024/03/21 01:37:34;;;;;;;0.70;0.70;;;;;;;6.54;54.79;100314.38;4468700;32;33382;-80
2024/03/21 01:40:06;;;;;;;1.62;1.52;;;;;;;6.58;54.53;100307.34;4467799;31;32515;-80
2024/03/21 01:42:32;;;;;;;0.40;0.28;;;;;;;6.68;54.38;100311.50;4467872;31;33915;-80
2024/03/21 01:45:01;;;;;;;7.28;1.95;;;;;;;6.44;54.60;100315.47;4457477;31;35136;-79
2024/03/21 01:47:27;;;;;;;2.05;1.95;;;;;;;6.37;54.87;100309.47;4470613;31;32760;-80
2024/03/21 01:49:55;;;;;;;0.47;0.47;;;;;;;6.51;54.49;100310.97;4472949;31;33825;-80
2024/03/21 01:52:22;;;;;;;0.80;0.80;;;;;;;6.50;54.16;100306.59;4441735;31;35067;-80
2024/03/21 01:54:49;;;;;;;1.00;1.00;;;;;;;6.49;53.96;100316.25;4480104;31;32664;-80
2024/03/21 01:57:17;;;;;;;0.28;0.28;;;;;;;6.51;53.98;100316.22;4489487;31;34761;-80
2024/03/21 01:59:44;;;;;;;1.23;0.93;;;;;;;6.56;54.07;100304.75;4457751;31;33027;-81
2024/03/21 02:02:11;;;;;;;0.70;0.70;;;;;;;6.40;54.87;100303.28;4466084;31;32724;-80
2024/03/21 02:04:38;;;;;;;1.45;1.37;;;;;;;6.40;54.71;100303.28;4456550;31;35037;-80
2024/03/21 02:07:05;;;;;;;0.57;0.57;;;;;;;6.51;54.10;100305.72;4471277;31;32623;-80
2024/03/21 02:09:31;;;;;;;0.77;0.77;;;;;;;6.47;54.09;100309.31;4467926;31;32693;-80
2024/03/21 02:12:06;;;;;;;1.98;1.40;;;;;;;6.40;54.38;100304.16;4450476;31;34540;-80
2024/03/21 02:14:37;;;;;;;1.25;1.15;;;;;;;6.53;53.59;100306.56;4474099;31;34144;-80
2024/03/21 02:17:05;;;;;;;0.32;0.32;;;;;;;6.49;53.85;100303.12;4459136;32;34883;-80
2024/03/21 02:19:31;;;;;;;2.30;2.20;;;;;;;6.46;54.02;100304.94;4474892;31;33083;-80
2024/03/21 02:24:44;;;;;;;0.68;0.68;;;;;;;6.37;54.24;100295.50;4481602;31;34155;-80
2024/03/21 02:27:10;;;;;;;0.98;0.88;;;;;;;6.24;54.72;100302.72;4466653;32;34284;-80
2024/03/21 02:29:37;;;;;;;1.70;1.65;;;;;;;5.97;55.42;100304.06;4466825;31;33992;-80
2024/03/21 02:32:04;;;;;;;1.10;1.10;;;;;;;6.09;55.09;100297.75;4460298;31;35479;-80
2024/03/21 02:34:31;;;;;;;0.43;0.30;;;;;;;6.23;54.76;100298.37;4467300;31;33095;-80
2024/03/21 02:36:57;;;;;;;2.65;2.45;;;;;;;6.35;54.33;100290.25;4484882;31;34117;-80
2024/03/21 02:39:24;;;;;;;1.85;1.75;;;;;;;6.37;54.13;100285.88;4457853;31;32989;-80
2024/03/21 02:41:53;;;;;;;0.98;0.95;;;;;;;6.25;54.23;100283.47;4474066;31;32717;-80
2024/03/21 02:44:19;;;;;;;1.52;1.42;;;;;;;6.14;54.53;100288.03;4474045;31;34036;-80
2024/03/21 02:46:46;;;;;;;0.30;0.30;;;;;;;6.16;54.55;100288.88;4449586;32;35345;-80
2024/03/21 02:49:13;;;;;;;1.02;1.00;;;;;;;6.27;54.36;100286.94;4473953;31;33700;-79
2024/03/21 02:51:39;;;;;;;0.62;0.62;;;;;;;6.16;54.74;100288.88;4471047;31;33037;-80
2024/03/21 02:54:07;;;;;;;0.73;0.73;;;;;;;6.16;54.30;100278.38;4478085;31;33934;-80
2024/03/21 02:56:33;;;;;;;0.52;0.52;;;;;;;6.31;54.03;100285.97;4487359;31;34334;-80
2024/03/21 02:59:02;;;;;;;2.78;1.15;;;;;;;6.19;54.30;100278.34;4453833;31;31526;-80
2024/03/21 03:01:29;;;;;;;0.37;0.37;;;;;;;6.14;54.23;100285.44;4472211;31;34476;-80
2024/03/21 03:03:56;;;;;;;1.33;0.70;;;;;;;6.07;54.09;100289.88;4462251;31;33505;-80
2024/03/21 03:06:22;;;;;;;1.08;1.02;;;;;;;6.10;54.45;100281.97;4480385;31;34038;-81
2024/03/21 03:08:49;;;;;;;1.87;1.77;;;;;;;6.04;54.88;100283.84;4455011;31;33658;-80
2024/03/21 03:11:16;;;;;;;2.20;1.27;;;;;;;5.75;55.35;100287.81;4463733;31;33204;-81
2024/03/21 03:13:42;;;;;;;1.35;1.35;;;;;;;5.73;55.57;100286.94;4462123;31;33564;-81
2024/03/21 03:16:09;;;;;;;0.90;0.90;;;;;;;5.90;55.08;100284.91;4471011;31;32889;-80
2024/03/21 03:18:36;;;;;;;1.15;1.15;;;;;;;5.99;55.07;100285.69;4486516;31;33981;-80
2024/03/21 03:21:02;;;;;;;2.85;2.62;;;;;;;5.84;55.45;100282.41;4460750;31;33952;-80
2024/03/21 03:23:30;;;;;;;0.73;0.73;;;;;;;5.80;55.36;100275.50;4471398;31;34398;-80
2024/03/21 03:25:56;;;;;;;1.73;1.48;;;;;;;6.05;54.25;100277.72;4483915;31;33958;-80
2024/03/21 03:28:22;;;;;;;1.30;1.27;;;;;;;5.68;55.29;100286.16;4488333;31;32278;-80
2024/03/21 03:30:49;;;;;;;1.70;0.80;;;;;;;5.59;55.87;100286.31;4453426;31;35045;-80
2024/03/21 03:36:06;;;;;;;1.40;1.40;;;;;;;5.65;55.96;100297.56;4468321;31;35169;-80
2024/03/21 03:38:33;;;;;;;2.33;0.77;;;;;;;5.71;55.75;100288.75;4467928;31;33770;-80
2024/03/21 03:40:59;;;;;;;2.65;2.22;;;;;;;5.73;55.08;100283.47;4455534;31;33486;-80
2024/03/21 03:43:26;;;;;;;1.30;1.23;;;;;;;5.54;55.91;100282.88;4466397;31;34342;-80
2024/03/21 03:45:53;;;;;;;2.35;2.25;;;;;;;5.38;56.46;100287.50;4473488;31;32467;-80
2024/03/21 03:48:19;;;;;;;0.55;0.55;;;;;;;5.33;56.73;100295.41;4479924;31;34292;-80
2024/03/21 03:50:46;;;;;;;1.37;1.27;;;;;;;5.51;56.17;100289.06;4445842;31;34520;-79
2024/03/21 03:53:13;;;;;;;1.30;1.20;;;;;;;5.48;56.24;100298.69;4467350;31;32498;-80
2024/03/21 03:55:39;;;;;;;1.25;1.15;;;;;;;5.35;56.62;100298.00;4467140;31;32448;-81
2024/03/21 03:58:06;;;;;;;2.65;1.55;;;;;;;5.57;55.83;100303.81;4453510;31;33658;-81
2024/03/21 04:00:33;;;;;;;2.00;1.90;;;;;;;5.72;55.25;100298.31;4467946;31;33818;-81
2024/03/21 04:03:00;;;;;;;3.62;2.62;;;;;;;5.60;55.38;100303.75;4468017;31;33311;-81
2024/03/21 04:05:26;;;;;;;0.40;0.40;;;;;;;5.63;55.43;100306.31;4475197;31;32533;-80
2024/03/21 04:07:54;;;;;;;0.10;0.10;;;;;;;5.62;55.36;100296.75;4485694;31;33311;-81
2024/03/21 04:10:21;;;;;;;2.62;2.53;;;;;;;5.53;55.13;100315.22;4464292;31;33665;-81
2024/03/21 04:12:47;;;;;;;0.10;0.10;;;;;;;5.28;56.07;100302.47;4487009;31;34658;-81
2024/03/21 04:15:14;;;;;;;1.15;1.10;;;;;;;5.34;55.74;100314.63;4464460;31;32765;-81
2024/03/21 04:17:41;;;;;;;2.17;2.08;;;;;;;5.33;56.32;100308.53;4443739;32;33943;-80
2024/03/21 04:20:08;;;;;;;0.55;0.55;;;;;;;5.22;56.15;100307.81;4476279;31;33394;-81
2024/03/21 04:22:36;;;;;;;1.10;0.57;;;;;;;5.21;56.65;100313.91;4481540;31;32630;-81
2024/03/21 04:25:05;;;;;;;0.90;0.90;;;;;;;5.37;56.18;100310.22;4469678;31;32481;-81
2024/03/21 04:27:32;;;;;;;1.20;1.20;;;;;;;5.18;56.68;100311.34;4479848;31;32871;-81
2024/03/21 04:29:59;;;;;;;1.85;1.73;;;;;;;5.35;56.15;100311.09;4456104;31;33148;-82
2024/03/21 04:32:26;;;;;;;0.82;0.82;;;;;;;5.37;55.82;100314.59;4456607;31;35128;-82
2024/03/21 04:34:52;;;;;;;4.53;2.40;;;;;;;5.43;55.52;100311.87;4463292;31;35506;-81
2024/03/21 04:37:19;;;;;;;1.40;1.30;;;;;;;5.48;55.50;100309.19;4475728;31;32573;-80
2024/03/21 04:39:47;;;;;;;0.50;0.47;;;;;;;5.37;55.82;100307.59;4462917;31;35348;-80
2024/03/21 04:42:15;;;;;;;0.60;0.60;;;;;;;5.61;54.74;100313.34;4466613;31;33381;-81
2024/03/21 04:44:44;;;;;;;1.45;0.60;;;;;;;5.51;55.03;100312.63;4473763;31;33455;-80
2024/03/21 04:47:12;;;;;;;0.13;0.13;;;;;;;5.37;55.39;100317.19;4468222;31;32280;-81
2024/03/21 04:49:38;;;;;;;2.17;2.08;;;;;;;5.13;56.00;100318.41;4481309;31;33670;-81
2024/03/21 04:52:05;;;;;;;1.88;1.78;;;;;;;5.11;56.41;100318.41;4473580;31;32625;-81
2024/03/21 04:54:32;;;;;;;2.65;1.42;;;;;;;5.12;56.47;100314.03;4459815;31;34038;-81
2024/03/21 04:56:58;;;;;;;0.88;0.88;;;;;;;5.18;56.47;100324.44;4471447;31;33028;-81
2024/03/21 04:59:27;;;;;;;1.20;1.20;;;;;;;5.19;56.00;100318.31;4461248;31;33359;-82
2024/03/21 05:01:57;;;;;;;0.47;0.47;;;;;;;5.01;56.38;100322.03;4461073;31;35478;-81
2024/03/21 05:04:24;;;;;;;0.35;0.32;;;;;;;5.02;56.96;100315.91;4466589;31;33378;-81
2024/03/21 05:06:52;;;;;;;0.73;0.73;;;;;;;5.21;56.26;100320.91;4474534;32;32729;-81
2024/03/21 05:09:20;;;;;;;1.23;1.23;;;;;;;5.18;56.33;100323.59;4442485;31;35275;-81
2024/03/21 05:11:47;;;;;;;1.02;1.02;;;;;;;5.22;56.03;100326.13;4460779;31;32673;-81
2024/03/21 05:14:13;;;;;;;2.05;1.85;;;;;;;5.33;55.78;100329.47;4468075;31;34234;-81
2024/03/21 05:16:40;;;;;;;1.48;0.77;;;;;;;5.37;55.77;100327.69;4469087;32;34434;-81
2024/03/21 05:19:06;;;;;;;1.23;1.23;;;;;;;5.23;56.34;100335.72;4463366;31;32986;-81
2024/03/21 05:21:33;;;;;;;2.12;1.95;;;;;;;5.23;56.28;100327.88;4474106;32;33905;-80
2024/03/21 05:24:00;;;;;;;0.43;0.43;;;;;;;5.35;56.14;100337.28;4467530;31;32733;-80
2024/03/21 05:26:26;;;;;;;1.02;1.02;;;;;;;5.25;56.95;100333.94;4474506;31;33233;-84
2024/03/21 05:28:53;;;;;;;3.22;1.02;;;;;;;5.45;56.43;100331.03;4467041;31;32716;-80
2024/03/21 05:31:21;;;;;;;0.52;0.52;;;;;;;5.49;56.56;100342.34;4451193;31;33951;-80
2024/03/21 05:33:48;;;;;;;1.85;1.05;;;;;;;5.56;56.52;100336.13;4471149;31;33355;-80
2024/03/21 05:36:16;;;;;;;2.50;2.15;;;;;;;5.52;56.61;100332.69;4463908;31;31964;-80
2024/03/21 05:38:47;;;;;;;0.30;0.30;;;;;;;5.73;56.48;100331.50;4466244;31;33246;-80
2024/03/21 05:41:14;;;;;;;1.52;1.40;;;;;;;5.57;56.66;100330.00;4456685;31;34049;-81
2024/03/21 05:43:41;;;;;;;2.15;2.05;;;;;;;5.65;56.30;100336.00;4465495;31;33409;-81
2024/03/21 05:46:08;;;;;;;1.65;1.55;;;;;;;5.62;56.60;100328.19;4451028;31;34484;-81
2024/03/21 05:48:35;;;;;;;0.20;0.20;;;;;;;5.70;56.82;100330.66;4477321;31;32483;-81
2024/03/21 05:51:04;;;;;;;0.13;0.13;;;;;;;5.83;56.49;100322.59;4481456;31;32941;-81
2024/03/21 05:53:31;;;;;;;1.10;1.10;;;;;;;5.95;56.47;100323.34;4446287;31;34528;-81
2024/03/21 05:55:57;;;;;;;9.45;1.10;;;;;;;6.06;56.55;100313.53;4464063;31;32230;-81
2024/03/21 05:58:24;;;;;;;0.85;0.85;;;;;;;6.12;56.50;100316.03;4475386;31;33437;-81
2024/03/21 06:01:22;;;;;;;0.70;0.70;;;;;;;6.22;56.43;100309.75;4470478;31;34627;-81
2024/03/21 06:03:49;;;;;;;0.62;0.62;;;;;;;6.44;55.88;100304.09;4462133;31;33875;-80
2024/03/21 06:06:16;;;;;;;2.00;1.08;;;;;;;6.64;55.71;100305.44;4476907;31;32904;-80
2024/03/21 06:08:43;;;;;;;3.30;2.75;;;;;;;6.98;55.29;100302.16;4469425;31;33292;-81
2024/03/21 06:11:10;;;;;;;1.45;0.95;;;;;;;6.98;55.66;100303.91;4460416;31;34241;-81
2024/03/21 06:13:36;;;;;;;2.00;1.83;;;;;;;7.18;55.35;100304.34;4471584;31;32211;-81
2024/03/21 06:16:04;;;;;;;2.40;1.85;;;;;;;7.33;55.33;100304.00;4458392;31;31835;-80
2024/03/21 06:18:31;;;;;;;1.75;1.62;;;;;;;7.42;55.01;100301.19;4470603;31;34340;-81
2024/03/21 06:20:58;;;;;;;0.50;0.50;;;;;;;7.46;54.76;100304.59;4472441;31;33470;-80
2024/03/21 06:23:24;;;;;;;2.50;2.28;;;;;;;7.63;54.70;100301.56;4470705;31;32877;-81
2024/03/21 06:25:52;;;;;;;1.25;1.25;;;;;;;7.69;54.47;100306.66;4471239;31;31437;-81
2024/03/21 06:28:18;;;;;;;2.55;1.75;;;;;;;8.08;54.04;100304.84;4474624;31;31376;-80
2024/03/21 06:30:45;;;;;;;1.45;1.05;;;;;;;7.96;54.05;100306.00;4472639;31;32194;-80
2024/03/21 06:33:12;;;;;;;2.08;1.92;;;;;;;8.15;53.73;100309.03;4470439;31;34068;-81
2024/03/21 06:35:41;;;;;;;0.68;0.43;;;;;;;8.14;52.90;100306.47;4463519;31;32397;-81
2024/03/21 06:38:07;;;;;;;2.42;2.28;;;;;;;8.25;51.56;100307.03;4465480;31;32796;-81
2024/03/21 06:40:35;;;;;;;2.45;2.15;;;;;;;8.69;50.07;100302.41;4458167;31;33010;-81
2024/03/21 06:43:02;;;;;;;1.10;1.10;;;;;;;8.94;48.76;100303.41;4481283;31;33519;-82
2024/03/21 06:45:30;;;;;;;1.70;1.20;;;;;;;9.25;48.31;100307.75;4467993;31;32636;-81
2024/03/21 06:47:57;;;;;;;1.08;1.00;;;;;;;9.66;47.29;100292.44;4462930;32;33801;-81
2024/03/21 06:50:24;;;;;;;5.97;4.28;;;;;;;9.78;46.72;100297.34;4481645;31;33940;-81
2024/03/21 06:52:51;;;;;;;2.45;1.67;;;;;;;10.15;44.55;100301.37;4480583;31;33447;-80
2024/03/21 06:55:18;;;;;;;8.10;2.35;;;;;;;10.31;45.33;100296.47;4484891;31;32136;-80
2024/03/21 06:57:52;;;;;;;2.33;1.35;;;;;;;10.35;43.24;100298.06;4469094;31;33464;-81
2024/03/21 07:00:19;;;;;;;1.27;1.27;;;;;;;10.77;42.55;100306.25;4437623;32;35004;-80
2024/03/21 07:02:46;;;;;;;4.28;1.60;;;;;;;11.11;42.35;100299.69;4489025;31;33931;-81
2024/03/21 07:05:12;;;;;;;1.37;1.27;;;;;;;11.43;41.52;100301.97;4460848;31;33037;-80
2024/03/21 07:07:39;;;;;;;7.72;2.03;;;;;;;11.56;41.54;100302.38;4485400;31;32330;-81
2024/03/21 07:10:06;;;;;;;2.53;1.23;;;;;;;11.97;40.55;100306.03;4458392;31;33463;-80
2024/03/21 07:12:33;;;;;;;3.35;1.83;;;;;;;12.01;39.73;100302.31;4468558;31;33462;-80
2024/03/21 07:15:02;;;;;;;2.62;2.25;;;;;;;12.24;39.19;100289.88;4466282;31;33678;-80
2024/03/21 07:17:29;;;;;;;1.05;1.05;;;;;;;12.45;38.86;100291.63;4482451;31;34313;-80
2024/03/21 07:19:56;;;;;;;4.75;1.65;;;;;;;12.64;38.28;100293.47;4462072;31;32529;-81
2024/03/21 07:22:22;;;;;;;5.65;1.37;;;;;;;12.88;37.99;100281.75;4470764;31;33695;-80
2024/03/21 07:24:50;;;;;;;2.58;2.35;;;;;;;13.20;38.67;100290.88;4484091;31;33369;-80
2024/03/21 07:27:23;;;;;;;1.45;1.35;;;;;;;13.15;37.78;100292.00;4467772;31;33778;-80
2024/03/21 07:29:50;;;;;;;2.22;2.10;;;;;;;13.19;37.88;100290.94;4456254;31;34698;-80
2024/03/21 07:32:16;;;;;;;1.35;1.17;;;;;;;13.25;37.98;100280.97;4474751;31;34703;-80
2024/03/21 07:34:42;;;;;;;2.78;2.58;;;;;;;13.42;38.19;100282.78;4469344;31;34021;-80
2024/03/21 07:37:09;;;;;;;5.35;2.97;;;;;;;13.64;36.28;100281.78;4455690;31;31887;-80
2024/03/21 07:39:36;;;;;;;2.05;1.52;;;;;;;13.93;36.33;100278.53;4453129;31;32930;-79
2024/03/21 07:42:03;;;;;;;2.15;2.05;;;;;;;13.86;35.20;100279.75;4462921;31;35497;-80
2024/03/21 07:44:30;;;;;;;0.93;0.93;;;;;;;14.03;35.20;100279.78;4460164;31;33656;-80
2024/03/21 07:46:57;;;;;;;1.00;1.00;;;;;;;14.51;35.13;100275.59;4469854;32;33267;-80
2024/03/21 07:49:23;;;;;;;4.97;3.08;;;;;;;14.85;34.11;100274.66;4475802;31;32459;-80
2024/03/21 07:51:51;;;;;;;1.55;1.45;;;;;;;14.94;34.05;100277.75;4460999;31;34798;-80
2024/03/21 07:54:18;;;;;;;1.73;1.62;;;;;;;15.16;36.31;100280.13;4469714;32;32442;-80
2024/03/21 07:56:44;;;;;;;2.85;2.65;;;;;;;15.25;33.00;100271.63;4469872;31;33501;-80
2024/03/21 07:59:11;;;;;;;1.98;1.83;;;;;;;15.04;33.92;100273.66;4457156;31;33314;-80
2024/03/21 08:01:38;;;;;;;2.05;1.85;;;;;;;14.71;33.76;100276.31;4459369;31;32551;-80
2024/03/21 08:04:07;;;;;;;4.07;2.17;;;;;;;14.82;34.17;100277.50;4470155;31;32099;-80
2024/03/21 08:06:33;;;;;;;8.77;2.22;;;;;;;14.80;33.72;100286.47;4477688;31;33530;-80
2024/03/21 08:09:00;;;;;;;3.03;2.78;;;;;;;15.22;33.75;100282.44;4470278;31;32331;-80
2024/03/21 08:11:27;;;;;;;2.50;2.30;;;;;;;15.52;34.35;100272.72;4465080;31;32745;-80
2024/03/21 08:13:53;;;;;;;3.78;2.00;;;;;;;15.82;33.26;100272.81;4459644;32;31576;-80
2024/03/21 08:16:20;;;;;;;3.20;2.35;;;;;;;15.85;34.05;100274.44;4467796;31;32763;-80
2024/03/21 08:18:47;;;;;;;1.95;1.75;;;;;;;15.73;34.84;100285.81;4452656;31;34312;-80
2024/03/21 08:21:14;;;;;;;6.97;3.92;;;;;;;15.44;34.67;100290.94;4466230;31;33850;-80
2024/03/21 08:23:41;;;;;;;2.33;2.22;;;;;;;15.24;34.76;100292.06;4460083;31;32243;-81
2024/03/21 08:26:08;;;;;;;3.45;3.15;;;;;;;15.35;35.02;100283.47;4464093;31;35029;-80
2024/03/21 08:28:34;;;;;;;8.45;4.22;;;;;;;15.33;35.05;100290.66;4474191;31;32805;-80
2024/03/21 08:31:01;;;;;;;4.12;2.62;;;;;;;15.41;33.94;100287.59;4469399;31;33604;-80
2024/03/21 08:33:28;;;;;;;2.55;1.58;;;;;;;15.29;34.80;100284.69;4469604;31;35417;-80
2024/03/21 08:35:56;;;;;;;11.02;3.62;;;;;;;15.74;34.25;100284.84;4487815;31;33709;-81
2024/03/21 08:38:22;;;;;;;3.85;3.50;;;;;;;15.35;34.89;100307.44;4461314;31;32778;-80
2024/03/21 08:40:53;;;;;;;3.70;2.08;;;;;;;15.28;34.03;100298.91;4454653;31;35052;-81
2024/03/21 08:43:20;;;;;;;3.95;3.10;;;;;;;15.28;34.09;100293.59;4458960;31;31987;-81
2024/03/21 08:45:48;;;;;;;36.40;3.33;;;;;;;15.22;35.03;100306.38;4472389;31;32845;-80
2024/03/21 08:48:16;;;;;;;4.72;3.33;;;;;;;15.74;34.54;100300.84;4460803;31;33811;-81
2024/03/21 08:50:47;;;;;;;3.53;3.20;;;;;;;15.99;33.68;100298.47;4469480;31;33939;-81
2024/03/21 08:53:15;;;;;;;3.92;3.35;;;;;;;16.09;33.96;100299.66;4473342;31;33598;-80
2024/03/21 08:55:42;;;;;;;4.45;4.15;;;;;;;16.13;32.95;100298.50;4471921;31;34614;-80
2024/03/21 08:58:09;;;;;;;4.37;2.80;;;;;;;16.36;32.35;100290.97;4487961;31;33804;-81
2024/03/21 09:00:37;;;;;;;3.87;3.53;;;;;;;16.74;31.65;100288.69;4487127;31;34199;-80
2024/03/21 09:03:05;;;;;;;4.15;3.75;;;;;;;16.84;32.19;100289.81;4445902;31;31810;-80
2024/03/21 09:05:31;;;;;;;4.05;3.10;;;;;;;17.01;32.25;100294.13;4464118;31;32719;-81
2024/03/21 09:07:58;;;;;;;2.42;1.70;;;;;;;16.91;32.33;100290.31;4485185;31;34894;-82
2024/03/21 09:10:25;;;;;;;4.35;3.95;;;;;;;16.81;30.51;100286.50;4459950;31;35536;-81
2024/03/21 09:12:51;;;;;;;3.60;2.55;;;;;;;17.26;30.27;100287.22;4460727;31;32003;-81
2024/03/21 09:15:18;;;;;;;2.70;2.55;;;;;;;16.86;31.46;100281.75;4469233;31;34213;-81
2024/03/21 09:17:45;;;;;;;3.87;3.53;;;;;;;16.53;31.56;100293.50;4459114;31;35175;-81
2024/03/21 09:20:12;;;;;;;5.68;4.12;;;;;;;17.02;31.80;100287.81;4459707;31;34214;-81
2024/03/21 09:22:39;;;;;;;4.50;3.85;;;;;;;16.79;30.84;100291.91;4461381;31;31965;-81
2024/03/21 09:25:06;;;;;;;4.18;3.70;;;;;;;16.78;30.71;100284.87;4464393;31;34727;-81
2024/03/21 09:27:33;;;;;;;7.45;3.67;;;;;;;16.69;30.62;100289.88;4472302;31;33919;-81
2024/03/21 09:29:59;;;;;;;4.60;4.12;;;;;;;17.14;30.68;100276.41;4465245;31;33593;-81
2024/03/21 09:32:26;;;;;;;2.58;2.42;;;;;;;17.57;29.43;100278.97;4459847;31;34388;-81
2024/03/21 09:34:53;;;;;;;6.87;4.72;;;;;;;17.38;29.67;100276.62;4491418;31;33864;-81
2024/03/21 09:37:19;;;;;;;4.82;2.85;;;;;;;16.89;30.90;100271.72;4460009;31;32271;-81
2024/03/21 09:39:46;;;;;;;7.00;3.40;;;;;;;17.47;29.94;100271.63;4459234;31;32862;-82
2024/03/21 09:42:16;;;;;;;10.15;2.17;;;;;;;17.57;31.18;100270.97;4461445;31;31912;-81
2024/03/21 09:44:53;;;;;;;5.65;3.15;;;;;;;17.73;29.57;100264.63;4465331;31;32645;-82
2024/03/21 09:47:23;;;;;;;4.93;3.87;;;;;;;17.90;29.30;100269.75;4477697;31;33289;-81
2024/03/21 09:49:50;;;;;;;7.50;3.15;;;;;;;18.15;28.63;100252.91;4474403;31;34692;-81
2024/03/21 09:52:17;;;;;;;4.82;4.35;;;;;;;17.78;29.30;100259.84;4478611;31;31736;-81
2024/03/21 09:54:44;;;;;;;2.70;2.42;;;;;;;17.86;28.97;100257.53;4472444;31;34430;-81
2024/03/21 09:57:12;;;;;;;7.40;4.65;;;;;;;17.78;29.40;100254.50;4474456;31;34840;-81
2024/03/21 09:59:39;;;;;;;2.78;2.60;;;;;;;17.83;28.97;100247.03;4469154;31;32386;-81
2024/03/21 10:02:13;;;;;;;3.35;1.75;;;;;;;18.53;30.12;100239.56;4459096;31;34826;-81
2024/03/21 10:04:44;;;;;;;3.90;2.80;;;;;;;19.10;28.98;100235.59;4475605;31;33963;-81
2024/03/21 10:07:18;;;;;;;3.58;3.28;;;;;;;19.14;27.41;100237.06;4472864;31;33156;-82
2024/03/21 10:09:55;;;;;;;5.97;2.87;;;;;;;19.30;28.50;100242.16;4459650;31;33919;-81
2024/03/21 10:12:22;;;;;;;4.03;3.58;;;;;;;19.25;27.17;100234.47;4475494;31;33922;-82
2024/03/21 10:14:55;;;;;;;5.87;3.60;;;;;;;19.52;26.99;100226.22;4458772;31;34595;-81
2024/03/21 10:17:25;;;;;;;3.35;1.73;;;;;;;19.67;27.29;100230.47;4471920;31;33192;-82
2024/03/21 10:19:53;;;;;;;11.18;3.25;;;;;;;19.62;26.73;100227.28;4469140;31;35595;-81
2024/03/21 10:22:24;;;;;;;6.00;3.30;;;;;;;19.42;26.92;100226.06;4473691;31;32174;-81
2024/03/21 10:24:55;;;;;;;5.47;2.97;;;;;;;19.43;27.20;100218.88;4475626;31;33301;-81
2024/03/21 10:27:23;;;;;;;9.88;5.00;;;;;;;19.51;25.81;100220.97;4474318;31;35087;-81
2024/03/21 10:29:50;;;;;;;5.53;4.18;;;;;;;19.11;27.00;100211.38;4484771;31;33907;-81
2024/03/21 10:32:18;;;;;;;3.00;1.77;;;;;;;19.00;28.39;100211.31;4470403;31;32012;-81
2024/03/21 10:34:50;;;;;;;2.72;2.42;;;;;;;18.96;28.21;100208.97;4460784;31;34510;-81
2024/03/21 10:37:17;;;;;;;4.07;1.87;;;;;;;19.46;27.72;100215.94;4461529;31;32625;-82
2024/03/21 10:39:45;;;;;;;2.97;2.60;;;;;;;19.74;27.00;100200.53;4472484;31;35004;-82
2024/03/21 10:43:01;;;;;;;4.25;2.58;;;;;;;19.61;26.62;100198.81;4473488;31;32786;-81
2024/03/21 10:45:28;;;;;;;4.35;2.75;;;;;;;20.11;25.86;100196.75;4478056;31;32898;-81
2024/03/21 10:47:55;;;;;;;4.43;2.30;;;;;;;20.14;26.84;100193.84;4482425;31;34420;-82
2024/03/21 10:50:23;;;;;;;3.55;2.12;;;;;;;20.43;26.10;100185.38;4474493;31;32535;-82
2024/03/21 10:52:55;;;;;;;3.92;3.10;;;;;;;20.25;25.78;100176.06;4465955;31;32451;-82
2024/03/21 10:55:22;;;;;;;3.65;2.92;;;;;;;20.68;25.97;100189.66;4466469;31;33425;-82
2024/03/21 10:57:54;;;;;;;4.80;3.72;;;;;;;20.58;26.18;100181.50;4480712;31;34653;-82
2024/03/21 11:00:23;;;;;;;4.40;2.72;;;;;;;21.18;24.55;100172.19;4460007;31;34990;-82
2024/03/21 11:02:53;;;;;;;4.82;3.67;;;;;;;20.59;25.21;100174.31;4459219;31;32260;-82
2024/03/21 11:05:27;;;;;;;7.05;3.40;;;;;;;21.09;24.19;100175.59;4464181;31;32997;-82
2024/03/21 11:07:54;;;;;;;1.92;1.80;;;;;;;20.97;25.32;100168.53;4470292;31;34715;-82
2024/03/21 11:10:21;;;;;;;3.60;2.05;;;;;;;20.85;26.24;100174.91;4471873;31;34019;-82
2024/03/21 11:12:49;;;;;;;3.85;3.53;;;;;;;20.59;26.08;100159.06;4476271;31;32352;-82
2024/03/21 11:15:16;;;;;;;1.92;1.58;;;;;;;20.92;25.56;100160.00;4475685;31;32466;-82
2024/03/21 11:17:45;;;;;;;8.80;4.07;;;;;;;20.98;27.21;100156.81;4471887;31;32858;-82
2024/03/21 11:20:13;;;;;;;4.12;3.47;;;;;;;20.78;25.43;100152.22;4455486;31;33287;-82
2024/03/21 11:22:47;;;;;;;3.05;2.85;;;;;;;21.19;25.84;100152.37;4456813;31;33739;-81
2024/03/21 11:25:14;;;;;;;1.23;1.23;;;;;;;21.90;25.40;100141.13;4480484;31;34627;-82
2024/03/21 11:27:41;;;;;;;3.05;1.90;;;;;;;20.75;26.20;100152.44;4465883;31;34820;-82
2024/03/21 11:30:09;;;;;;;3.40;2.30;;;;;;;20.93;26.96;100150.97;4468164;31;32333;-82
2024/03/21 11:32:35;;;;;;;0.43;0.43;;;;;;;21.52;24.90;100131.81;4474575;31;31766;-82
2024/03/21 11:35:02;;;;;;;2.37;2.17;;;;;;;21.17;26.10;100143.62;4455272;31;34529;-81
2024/03/21 11:37:28;;;;;;;1.83;1.23;;;;;;;21.21;25.40;100139.69;4474868;31;32530;-82